X  Close Metar Aviation Weather Data     KCRE Grand Strand Airport
Temperature
79°F Temperature
73°F Dewpoint
84% Humidity



Wind
6 MPH
10 KM/H
3 M/S
5 KTS



20°
NNE
Current Conditions

Mostly Scattered Clouds Mostly Scattered Clouds
Pressure 1020.32 (hPa) - 30.13 (inHg)
Visibility 9.9 (mile) - 16 (km)
Airport
Airport-code KCRE

Location: Grand Strand Airport
Distance: 6 (mi)

Metar:
KCRE 100145Z AUTO 02005KT 10SM SCT013 BKN019 BKN025 26/23 A3013 RMK AO1 LTG DSNT NW RAB02E11 P0000 T02610228

Time: 09-08-2020 9:45 pm EDT